createdAt,value
2022-11-30T00:01:15.046Z,12.75
2022-11-30T00:03:42.069Z,10.93
2022-11-30T00:06:10.999Z,11.77
2022-11-30T00:08:38.849Z,12.70
2022-11-30T00:11:14.109Z,12.40
2022-11-30T00:13:42.117Z,13.27
2022-11-30T00:16:09.703Z,11.68
2022-11-30T00:18:37.084Z,10.90
2022-11-30T00:21:06.628Z,11.20
2022-11-30T00:23:38.169Z,12.07
2022-11-30T00:26:07.730Z,12.00
2022-11-30T00:28:36.040Z,11.75
2022-11-30T00:31:08.862Z,11.95
2022-11-30T00:33:37.720Z,13.00
2022-11-30T00:36:07.943Z,12.15
2022-11-30T00:38:35.014Z,12.35
2022-11-30T00:41:01.976Z,10.05
2022-11-30T00:43:29.323Z,11.38
2022-11-30T00:45:57.391Z,11.70
2022-11-30T00:48:24.971Z,12.13
2022-11-30T00:50:52.138Z,12.50
2022-11-30T00:53:20.238Z,11.60
2022-11-30T00:55:47.680Z,11.85
2022-11-30T00:58:15.116Z,10.48
2022-11-30T01:00:42.856Z,11.82
2022-11-30T01:03:09.841Z,11.48
2022-11-30T01:05:36.723Z,11.40
2022-11-30T01:08:05.097Z,10.70
2022-11-30T01:10:32.899Z,10.90
2022-11-30T01:12:59.668Z,10.60
2022-11-30T01:15:26.642Z,11.77
2022-11-30T01:17:53.424Z,11.82
2022-11-30T01:20:20.301Z,10.98
2022-11-30T01:22:47.141Z,10.68
2022-11-30T01:25:13.978Z,10.85
2022-11-30T01:27:40.800Z,12.15
2022-11-30T01:30:08.128Z,11.05
2022-11-30T01:32:35.029Z,11.68
2022-11-30T01:35:01.967Z,13.15
2022-11-30T01:37:30.145Z,11.68
2022-11-30T01:39:57.157Z,11.07
2022-11-30T01:42:24.431Z,12.65
2022-11-30T01:44:54.566Z,13.30
2022-11-30T01:47:26.613Z,11.48
2022-11-30T01:50:02.685Z,12.13
2022-11-30T01:52:33.940Z,13.25
2022-11-30T01:55:14.135Z,13.48
2022-11-30T01:58:05.340Z,12.32
2022-11-30T02:00:32.571Z,13.18
2022-11-30T02:03:32.571Z,13.50
2022-11-30T02:06:00.244Z,13.73
2022-11-30T02:08:28.405Z,12.25
2022-11-30T02:11:00.077Z,14.35
2022-11-30T02:13:41.986Z,14.25
2022-11-30T02:16:42.427Z,14.85
2022-11-30T02:19:38.155Z,14.57
2022-11-30T02:22:30.445Z,14.57
2022-11-30T02:25:23.183Z,14.07
2022-11-30T02:28:23.881Z,17.58
2022-11-30T02:30:53.862Z,14.10
2022-11-30T02:33:25.212Z,14.32
2022-11-30T02:35:55.343Z,15.15
2022-11-30T02:38:25.395Z,15.52
2022-11-30T02:40:52.836Z,14.60
2022-11-30T02:43:26.220Z,15.05
2022-11-30T02:46:19.224Z,15.77
2022-11-30T02:49:19.534Z,14.07
2022-11-30T02:51:48.295Z,12.73
2022-11-30T02:54:15.276Z,13.25
2022-11-30T02:56:42.423Z,14.02
2022-11-30T02:59:09.503Z,15.23
2022-11-30T03:01:36.611Z,13.63
2022-11-30T03:04:03.613Z,14.30
2022-11-30T03:06:30.382Z,12.35
2022-11-30T03:08:57.219Z,13.68
2022-11-30T03:11:24.129Z,15.07
2022-11-30T03:13:50.966Z,14.48
2022-11-30T03:16:17.888Z,13.80
2022-11-30T03:18:44.915Z,12.90
2022-11-30T03:21:12.935Z,13.20
2022-11-30T03:23:39.833Z,12.93
2022-11-30T03:26:08.457Z,12.43
2022-11-30T03:28:36.494Z,12.48
2022-11-30T03:31:06.390Z,12.60
2022-11-30T03:33:33.282Z,13.30
2022-11-30T03:36:02.537Z,13.98
2022-11-30T03:38:29.884Z,12.07
2022-11-30T03:41:05.220Z,12.75
2022-11-30T03:43:32.271Z,13.65
2022-11-30T03:45:59.164Z,14.25
2022-11-30T03:48:26.169Z,12.90
2022-11-30T03:50:53.031Z,13.57
2022-11-30T03:53:22.132Z,12.32
2022-11-30T03:55:54.098Z,10.82
2022-11-30T03:58:21.730Z,11.43
2022-11-30T04:00:48.801Z,12.00
2022-11-30T04:03:16.413Z,10.52
2022-11-30T04:05:43.622Z,9.75
2022-11-30T04:08:10.457Z,10.98
2022-11-30T04:10:37.323Z,10.70
2022-11-30T04:13:04.211Z,11.13
2022-11-30T04:15:31.068Z,12.30
2022-11-30T04:17:57.943Z,10.65
2022-11-30T04:20:25.520Z,9.52
2022-11-30T04:22:52.352Z,9.60
2022-11-30T04:25:19.233Z,10.40
2022-11-30T04:27:47.439Z,10.23
2022-11-30T04:30:15.128Z,8.15
2022-11-30T04:32:42.185Z,9.18
2022-11-30T04:35:10.816Z,9.68
2022-11-30T04:37:38.002Z,9.35
2022-11-30T04:40:05.773Z,8.82
2022-11-30T04:42:32.627Z,9.50
2022-11-30T04:44:59.443Z,8.50
2022-11-30T04:47:26.279Z,9.30
2022-11-30T04:49:53.032Z,8.07
2022-11-30T04:52:19.872Z,8.98
2022-11-30T04:54:46.959Z,9.15
2022-11-30T04:57:14.279Z,8.27
2022-11-30T04:59:41.043Z,10.43
2022-11-30T05:02:08.208Z,9.70
2022-11-30T05:04:35.239Z,10.20
2022-11-30T05:07:02.089Z,10.27
2022-11-30T05:09:28.859Z,9.73
2022-11-30T05:11:56.242Z,9.30
2022-11-30T05:14:23.117Z,9.52
2022-11-30T05:16:50.198Z,9.32
2022-11-30T05:19:17.109Z,9.43
2022-11-30T05:21:45.885Z,9.18
2022-11-30T05:24:12.925Z,9.57
2022-11-30T05:26:39.893Z,9.27
2022-11-30T05:29:07.092Z,9.40
2022-11-30T05:31:34.143Z,8.48
2022-11-30T05:34:01.044Z,8.43
2022-11-30T05:36:27.874Z,8.85
2022-11-30T05:38:54.714Z,8.52
2022-11-30T05:41:21.620Z,10.52
2022-11-30T05:43:48.771Z,8.80
2022-11-30T05:46:15.615Z,8.75
2022-11-30T05:48:42.521Z,9.52
2022-11-30T05:51:17.735Z,10.52
2022-11-30T05:53:45.769Z,10.25
2022-11-30T05:56:20.556Z,11.35
2022-11-30T05:58:47.928Z,10.90
2022-11-30T06:01:23.273Z,10.38
2022-11-30T06:03:51.016Z,9.88
2022-11-30T06:06:18.594Z,10.25
2022-11-30T06:08:46.997Z,9.52
2022-11-30T06:11:14.368Z,11.38
2022-11-30T06:13:41.296Z,11.55
2022-11-30T06:16:08.647Z,11.93
2022-11-30T06:18:37.231Z,12.18
2022-11-30T06:21:07.061Z,12.80
2022-11-30T06:23:34.609Z,12.93
2022-11-30T06:26:06.725Z,13.00
2022-11-30T06:28:34.124Z,13.18
2022-11-30T06:31:02.325Z,13.02
2022-11-30T06:33:29.583Z,13.07
2022-11-30T06:35:56.532Z,13.30
2022-11-30T06:38:24.298Z,16.30
2022-11-30T06:40:51.238Z,13.45
2022-11-30T06:43:18.808Z,16.02
2022-11-30T06:45:47.152Z,15.20
2022-11-30T06:48:14.635Z,11.68
2022-11-30T06:50:48.424Z,12.57
2022-11-30T06:53:16.839Z,12.90
2022-11-30T06:55:43.612Z,12.48
2022-11-30T06:58:11.092Z,13.07
2022-11-30T07:00:38.606Z,12.30
2022-11-30T07:03:06.264Z,12.35
2022-11-30T07:05:39.545Z,13.00
2022-11-30T07:08:06.412Z,12.23
2022-11-30T07:10:34.567Z,12.82
2022-11-30T07:13:01.411Z,13.35
2022-11-30T07:15:28.211Z,12.95
2022-11-30T07:17:55.120Z,12.80
2022-11-30T07:20:21.937Z,12.40
2022-11-30T07:22:49.910Z,11.93
2022-11-30T07:25:35.501Z,12.75
2022-11-30T07:28:02.366Z,13.25
2022-11-30T07:30:31.488Z,12.63
2022-11-30T07:32:58.314Z,13.52
2022-11-30T07:35:25.274Z,14.23
2022-11-30T07:37:52.038Z,13.57
2022-11-30T07:40:18.887Z,12.75
2022-11-30T07:42:45.693Z,13.02
2022-11-30T07:45:12.635Z,12.57
2022-11-30T07:47:39.452Z,13.00
2022-11-30T07:50:06.859Z,13.13
2022-11-30T07:52:33.669Z,13.48
2022-11-30T07:55:00.475Z,13.15
2022-11-30T07:57:27.902Z,13.40
2022-11-30T07:59:54.896Z,13.35
2022-11-30T08:02:21.845Z,12.75
2022-11-30T08:04:49.161Z,14.32
2022-11-30T08:07:16.317Z,14.43
2022-11-30T08:09:45.100Z,13.35
2022-11-30T08:12:12.516Z,13.57
2022-11-30T08:15:11.140Z,13.77
2022-11-30T08:17:26.197Z,13.45
2022-11-30T08:19:53.071Z,13.40
2022-11-30T08:22:19.909Z,13.73
2022-11-30T08:24:46.821Z,13.38
2022-11-30T08:27:13.913Z,13.88
2022-11-30T08:29:40.686Z,14.15
2022-11-30T08:32:07.489Z,14.82
2022-11-30T08:34:34.299Z,14.18
2022-11-30T08:37:01.092Z,13.77
2022-11-30T08:39:31.534Z,13.55
2022-11-30T08:41:58.400Z,14.07
2022-11-30T08:44:25.195Z,13.23
2022-11-30T08:46:52.934Z,13.63
2022-11-30T08:52:17.664Z,13.05
2022-11-30T08:54:47.194Z,12.68
2022-11-30T08:57:19.629Z,13.20
2022-11-30T08:59:47.112Z,12.90
2022-11-30T09:02:19.551Z,13.25
2022-11-30T09:04:49.488Z,13.70
2022-11-30T09:07:35.801Z,13.27
2022-11-30T09:10:02.755Z,14.25
2022-11-30T09:12:29.646Z,13.48
2022-11-30T09:14:58.509Z,14.23
2022-11-30T09:17:26.139Z,13.75
2022-11-30T09:19:52.955Z,12.93
2022-11-30T09:22:19.865Z,12.10
2022-11-30T09:24:46.992Z,11.18
2022-11-30T09:27:14.135Z,9.52
2022-11-30T09:29:40.937Z,8.93
2022-11-30T09:32:07.812Z,9.32
2022-11-30T09:34:34.692Z,8.32
2022-11-30T09:37:01.704Z,8.93
2022-11-30T09:39:28.454Z,9.55
2022-11-30T09:42:36.667Z,8.80
2022-11-30T09:45:28.556Z,8.25
2022-11-30T09:48:08.900Z,9.77
2022-11-30T09:50:43.928Z,8.23
2022-11-30T09:53:34.378Z,8.50
2022-11-30T09:56:01.773Z,8.00
2022-11-30T09:58:47.581Z,7.55
2022-11-30T10:01:18.557Z,6.95
2022-11-30T10:03:46.131Z,6.70
2022-11-30T10:06:30.090Z,6.45
2022-11-30T10:09:19.688Z,6.35
2022-11-30T10:12:05.742Z,5.68
2022-11-30T10:14:43.179Z,6.07
2022-11-30T10:17:35.996Z,5.43
2022-11-30T10:20:11.480Z,5.55
2022-11-30T10:22:55.985Z,5.70
2022-11-30T10:25:47.830Z,5.25
2022-11-30T10:28:45.736Z,5.30
2022-11-30T10:31:29.491Z,3.72
2022-11-30T10:34:02.549Z,5.40
2022-11-30T10:36:43.601Z,5.15
2022-11-30T10:39:38.348Z,4.47
2022-11-30T10:42:18.791Z,4.95
2022-11-30T10:44:59.252Z,6.00
2022-11-30T10:47:33.933Z,5.47
2022-11-30T10:50:00.916Z,6.15
2022-11-30T10:52:34.623Z,5.05
2022-11-30T10:55:04.838Z,5.63
2022-11-30T10:57:33.318Z,5.63
2022-11-30T11:00:03.641Z,5.97
2022-11-30T11:02:39.183Z,5.22
2022-11-30T11:05:15.284Z,4.90
2022-11-30T11:07:51.173Z,4.85
2022-11-30T11:10:33.074Z,4.22
2022-11-30T11:13:00.133Z,3.78
2022-11-30T11:15:32.585Z,4.22
2022-11-30T11:18:23.382Z,3.78
2022-11-30T11:21:04.395Z,3.92
2022-11-30T11:23:38.884Z,4.68
2022-11-30T11:26:08.280Z,3.65
2022-11-30T11:28:37.719Z,3.80
2022-11-30T11:31:18.869Z,4.10
2022-11-30T11:33:54.476Z,3.97
2022-11-30T11:36:33.335Z,4.25
2022-11-30T11:39:00.878Z,4.75
2022-11-30T11:41:33.945Z,4.35
2022-11-30T11:44:03.602Z,5.00
2022-11-30T11:46:33.153Z,4.30
2022-11-30T11:49:07.730Z,3.90
2022-11-30T11:51:37.433Z,5.07
2022-11-30T11:54:24.676Z,4.28
2022-11-30T11:56:52.491Z,4.43
2022-11-30T11:59:23.023Z,4.32
2022-11-30T12:02:19.414Z,4.75
2022-11-30T12:04:50.963Z,4.53
2022-11-30T12:07:27.641Z,4.95
2022-11-30T12:10:21.944Z,4.93
2022-11-30T12:12:55.334Z,5.32
2022-11-30T12:16:02.054Z,5.18
2022-11-30T12:18:51.854Z,5.22
2022-11-30T12:21:34.866Z,5.28
2022-11-30T12:24:20.199Z,5.85
2022-11-30T12:27:04.040Z,5.60
2022-11-30T12:29:43.017Z,5.95
2022-11-30T12:32:13.217Z,6.13
2022-11-30T12:35:27.926Z,6.07
2022-11-30T12:38:13.091Z,6.55
2022-11-30T12:41:21.273Z,6.78
2022-11-30T12:44:12.356Z,5.88
2022-11-30T12:47:04.938Z,6.55
2022-11-30T12:49:40.729Z,6.28
2022-11-30T12:52:32.580Z,6.57
2022-11-30T12:55:37.652Z,6.75
2022-11-30T12:58:35.624Z,8.05
2022-11-30T13:01:34.253Z,8.98
2022-11-30T13:04:14.364Z,5.88
2022-11-30T13:06:53.379Z,6.88
2022-11-30T13:09:36.490Z,5.68
2022-11-30T13:12:12.311Z,7.88
2022-11-30T13:14:39.498Z,5.97
2022-11-30T13:17:14.994Z,6.22
2022-11-30T13:19:58.241Z,5.97
2022-11-30T13:22:41.180Z,6.18
2022-11-30T13:26:05.667Z,6.70
2022-11-30T13:28:22.469Z,6.10
2022-11-30T13:30:57.965Z,6.97
2022-11-30T13:33:34.177Z,6.50
2022-11-30T13:36:05.125Z,5.38
2022-11-30T13:38:37.575Z,5.50
2022-11-30T13:41:07.431Z,5.15
2022-11-30T13:43:51.067Z,4.10
2022-11-30T13:46:23.637Z,4.00
2022-11-30T13:49:19.530Z,5.03
2022-11-30T13:51:53.071Z,5.63
2022-11-30T13:54:43.724Z,7.43
2022-11-30T13:57:39.376Z,14.10
2022-11-30T14:00:31.233Z,8.25
2022-11-30T14:03:22.247Z,9.20
2022-11-30T14:05:58.752Z,6.93
2022-11-30T14:08:38.288Z,7.20
2022-11-30T14:11:40.547Z,8.10
2022-11-30T14:14:46.509Z,8.00
2022-11-30T14:17:26.938Z,7.40
2022-11-30T14:20:00.525Z,8.40
2022-11-30T14:22:29.648Z,10.95
2022-11-30T14:24:57.170Z,5.05
2022-11-30T14:27:27.226Z,4.18
2022-11-30T14:30:00.500Z,3.75
2022-11-30T14:32:45.642Z,4.32
2022-11-30T14:35:16.035Z,3.90
2022-11-30T14:38:03.559Z,4.43
2022-11-30T14:40:30.987Z,4.70
2022-11-30T14:43:04.077Z,4.45
2022-11-30T14:45:33.020Z,3.17
2022-11-30T14:48:10.483Z,3.90
2022-11-30T14:50:42.590Z,3.30
2022-11-30T14:53:23.754Z,3.60
2022-11-30T14:56:19.435Z,3.70
2022-11-30T14:58:51.727Z,4.07
2022-11-30T15:01:26.970Z,4.50
2022-11-30T15:03:57.135Z,4.75
2022-11-30T15:06:31.190Z,3.13
2022-11-30T15:09:00.353Z,3.88
2022-11-30T15:11:28.226Z,3.97
2022-11-30T15:14:09.104Z,5.38
2022-11-30T15:16:36.615Z,5.50
2022-11-30T15:19:28.067Z,5.10
2022-11-30T15:21:57.033Z,6.43
2022-11-30T15:24:24.861Z,5.75
2022-11-30T15:26:57.137Z,4.80
2022-11-30T15:29:36.966Z,5.72
2022-11-30T15:32:16.738Z,6.78
2022-11-30T15:34:58.589Z,4.30
2022-11-30T15:37:34.336Z,4.18
2022-11-30T15:40:05.896Z,4.75
2022-11-30T15:42:41.555Z,4.57
2022-11-30T15:45:26.752Z,4.30
2022-11-30T15:47:55.832Z,4.85
2022-11-30T15:50:29.209Z,4.68
2022-11-30T15:52:58.935Z,7.82
2022-11-30T15:55:49.651Z,7.40
2022-11-30T15:58:40.014Z,5.05
2022-11-30T16:01:09.950Z,4.60
2022-11-30T16:04:01.728Z,4.30
2022-11-30T16:06:31.827Z,3.95
2022-11-30T16:09:06.239Z,4.78
2022-11-30T16:11:34.593Z,4.80
2022-11-30T16:14:01.539Z,5.40
2022-11-30T16:16:31.682Z,5.38
2022-11-30T16:18:58.548Z,4.82
2022-11-30T16:21:25.332Z,5.60
2022-11-30T16:23:52.108Z,5.32
2022-11-30T16:26:49.517Z,5.88
2022-11-30T16:29:06.962Z,5.47
2022-11-30T16:31:34.868Z,5.68
2022-11-30T16:34:01.721Z,8.25
2022-11-30T16:36:30.056Z,7.32
2022-11-30T16:38:57.775Z,9.73
2022-11-30T16:41:26.700Z,4.90
2022-11-30T16:43:55.927Z,6.45
2022-11-30T16:46:25.112Z,5.90
2022-11-30T16:48:52.328Z,5.97
2022-11-30T16:51:29.211Z,4.95
2022-11-30T16:53:56.428Z,4.57
2022-11-30T16:56:24.163Z,4.45
2022-11-30T16:58:51.315Z,6.57
2022-11-30T17:01:20.567Z,6.72
2022-11-30T17:03:50.655Z,5.10
2022-11-30T17:06:22.907Z,5.18
2022-11-30T17:08:50.537Z,5.50
2022-11-30T17:11:28.067Z,5.35
2022-11-30T17:13:55.046Z,5.93
2022-11-30T17:16:22.032Z,6.65
2022-11-30T17:18:49.029Z,5.70
2022-11-30T17:21:20.096Z,6.78
2022-11-30T17:23:46.862Z,6.43
2022-11-30T17:26:16.829Z,5.40
2022-11-30T17:28:43.729Z,4.93
2022-11-30T17:31:11.702Z,5.22
2022-11-30T17:33:43.535Z,4.88
2022-11-30T17:36:14.859Z,4.70
2022-11-30T17:38:44.082Z,4.85
2022-11-30T17:41:19.319Z,6.03
2022-11-30T17:43:48.138Z,5.97
2022-11-30T17:46:17.341Z,7.57
2022-11-30T17:48:44.852Z,5.13
2022-11-30T17:51:12.632Z,5.93
2022-11-30T17:53:41.299Z,5.13
2022-11-30T17:56:14.379Z,6.13
2022-11-30T17:58:44.306Z,16.35
2022-11-30T18:01:26.505Z,28.83
2022-11-30T18:03:54.046Z,29.45
2022-11-30T18:06:20.946Z,12.38
2022-11-30T18:08:48.050Z,16.90
2022-11-30T18:11:20.739Z,15.98
2022-11-30T18:13:53.388Z,9.98
2022-11-30T18:16:22.401Z,9.77
2022-11-30T18:18:50.128Z,6.68
2022-11-30T18:21:22.867Z,7.32
2022-11-30T18:23:50.459Z,9.15
2022-11-30T18:26:22.401Z,9.07
2022-11-30T18:28:56.581Z,10.02
2022-11-30T18:31:23.658Z,9.55
2022-11-30T18:33:55.938Z,9.93
2022-11-30T18:36:23.361Z,10.10
2022-11-30T18:38:50.208Z,10.45
2022-11-30T18:41:17.100Z,8.13
2022-11-30T18:43:43.984Z,7.82
2022-11-30T18:46:12.432Z,8.20
2022-11-30T18:48:40.894Z,8.77
2022-11-30T18:51:16.615Z,10.88
2022-11-30T18:53:44.023Z,10.50
2022-11-30T18:56:13.101Z,11.85
2022-11-30T18:58:44.224Z,9.65
2022-11-30T19:01:29.989Z,11.60
2022-11-30T19:03:59.901Z,9.82
2022-11-30T19:06:29.767Z,7.60
2022-11-30T19:08:57.453Z,8.68
2022-11-30T19:11:27.413Z,10.10
2022-11-30T19:13:58.968Z,11.23
2022-11-30T19:16:27.705Z,10.27
2022-11-30T19:18:55.580Z,11.15
2022-11-30T19:21:23.230Z,11.65
2022-11-30T19:23:50.446Z,11.55
2022-11-30T19:26:17.570Z,11.20
2022-11-30T19:28:46.017Z,10.05
2022-11-30T19:31:15.208Z,11.63
2022-11-30T19:33:44.471Z,11.80
2022-11-30T19:36:14.968Z,11.10
2022-11-30T19:38:42.177Z,11.00
2022-11-30T19:41:11.003Z,11.48
2022-11-30T19:43:38.344Z,11.10
2022-11-30T19:46:10.567Z,10.63
2022-11-30T19:48:37.604Z,11.32
2022-11-30T19:51:07.439Z,9.52
2022-11-30T19:53:35.324Z,10.60
2022-11-30T19:56:11.288Z,10.52
2022-11-30T19:58:38.067Z,11.25
2022-11-30T20:01:05.274Z,10.85
2022-11-30T20:03:36.040Z,11.25
2022-11-30T20:06:03.377Z,10.48
2022-11-30T20:08:30.620Z,9.77
2022-11-30T20:10:57.488Z,10.57
2022-11-30T20:13:24.559Z,10.25
2022-11-30T20:15:51.369Z,10.55
2022-11-30T20:18:18.190Z,10.23
2022-11-30T20:20:45.039Z,11.38
2022-11-30T20:23:11.876Z,11.65
2022-11-30T20:25:38.713Z,11.82
2022-11-30T20:28:09.662Z,11.90
2022-11-30T20:30:39.720Z,12.02
2022-11-30T20:33:06.625Z,11.07
2022-11-30T20:35:35.252Z,10.88
2022-11-30T20:38:02.215Z,11.38
2022-11-30T20:40:28.969Z,12.23
2022-11-30T20:42:55.794Z,10.73
2022-11-30T20:45:22.602Z,12.63
2022-11-30T20:47:49.419Z,11.73
2022-11-30T20:50:16.545Z,11.60
2022-11-30T20:52:43.341Z,12.93
2022-11-30T20:55:10.150Z,11.38
2022-11-30T20:57:37.159Z,10.82
2022-11-30T21:00:08.807Z,11.88
2022-11-30T21:02:38.524Z,12.65
2022-11-30T21:05:06.463Z,12.77
2022-11-30T21:07:33.377Z,14.10
2022-11-30T21:10:00.781Z,13.60
2022-11-30T21:12:27.782Z,15.15
2022-11-30T21:14:54.585Z,14.15
2022-11-30T21:17:21.768Z,14.35
2022-11-30T21:19:48.563Z,15.20
2022-11-30T21:22:15.388Z,14.40
2022-11-30T21:24:42.160Z,14.05
2022-11-30T21:27:09.233Z,13.70
2022-11-30T21:29:36.321Z,13.80
2022-11-30T21:32:03.350Z,12.93
2022-11-30T21:34:30.123Z,13.90
2022-11-30T21:36:56.993Z,14.45
2022-11-30T21:39:23.853Z,13.90
2022-11-30T21:41:50.742Z,15.40
2022-11-30T21:44:17.726Z,12.68
2022-11-30T21:46:46.496Z,13.65
2022-11-30T21:49:15.041Z,12.98
2022-11-30T21:51:42.749Z,13.55
2022-11-30T21:54:12.396Z,14.05
2022-11-30T21:56:41.141Z,13.30
2022-11-30T21:59:09.031Z,11.63
2022-11-30T22:01:39.189Z,12.50
2022-11-30T22:04:07.511Z,11.50
2022-11-30T22:06:36.217Z,11.80
2022-11-30T22:09:07.992Z,11.20
2022-11-30T22:11:38.300Z,12.40
2022-11-30T22:14:05.914Z,13.00
2022-11-30T22:16:36.382Z,13.20
2022-11-30T22:19:04.046Z,12.18
2022-11-30T22:21:31.585Z,13.23
2022-11-30T22:24:10.759Z,12.88
2022-11-30T22:26:42.672Z,13.13
2022-11-30T22:29:16.050Z,12.00
2022-11-30T22:31:45.104Z,13.50
2022-11-30T22:34:12.969Z,14.32
2022-11-30T22:36:41.837Z,13.82
2022-11-30T22:39:19.023Z,12.95
2022-11-30T22:41:53.075Z,13.40
2022-11-30T22:44:22.395Z,13.13
2022-11-30T22:46:49.836Z,13.02
2022-11-30T22:49:21.090Z,13.32
2022-11-30T22:51:48.990Z,13.15
2022-11-30T22:54:15.860Z,12.15
2022-11-30T22:56:42.866Z,12.40
2022-11-30T22:59:14.043Z,12.15
2022-11-30T23:01:49.488Z,12.27
2022-11-30T23:04:19.318Z,12.07
2022-11-30T23:06:48.212Z,13.50
2022-11-30T23:09:19.013Z,12.25
2022-11-30T23:11:46.469Z,10.93
2022-11-30T23:14:13.550Z,12.77
2022-11-30T23:16:40.957Z,12.27
2022-11-30T23:19:09.065Z,12.15
2022-11-30T23:21:41.464Z,12.10
2022-11-30T23:24:12.992Z,11.40
2022-11-30T23:26:40.018Z,11.73
2022-11-30T23:29:10.651Z,11.27
2022-11-30T23:31:39.901Z,11.93
2022-11-30T23:34:09.695Z,11.93
2022-11-30T23:36:37.408Z,12.38
2022-11-30T23:39:15.992Z,12.85
2022-11-30T23:41:42.978Z,11.48
2022-11-30T23:44:10.909Z,11.70
2022-11-30T23:46:37.984Z,12.00
2022-11-30T23:49:05.166Z,11.63
2022-11-30T23:51:32.373Z,12.38
2022-11-30T23:53:59.175Z,13.65
2022-11-30T23:56:26.054Z,12.15
2022-11-30T23:58:53.186Z,12.43
